createdAt,value
2023-04-03T00:00:39.271Z,3.23
2023-04-03T00:01:38.906Z,3.18
2023-04-03T00:02:38.999Z,3.17
2023-04-03T00:03:38.905Z,3.18
2023-04-03T00:04:38.852Z,3.15
2023-04-03T00:05:38.825Z,3.14
2023-04-03T00:06:38.807Z,3.20
2023-04-03T00:07:38.786Z,3.20
2023-04-03T00:08:38.800Z,3.14
2023-04-03T00:09:38.745Z,3.11
2023-04-03T00:10:39.241Z,3.14
2023-04-03T00:11:38.737Z,3.05
2023-04-03T00:12:38.685Z,3.05
2023-04-03T00:13:38.709Z,3.03
2023-04-03T00:14:38.668Z,3.05
2023-04-03T00:15:38.647Z,3.05
2023-04-03T00:16:38.643Z,3.02
2023-04-03T00:17:38.594Z,3.10
2023-04-03T00:18:38.563Z,3.00
2023-04-03T00:19:38.572Z,3.10
2023-04-03T00:20:39.135Z,2.99
2023-04-03T00:21:38.506Z,2.95
2023-04-03T00:22:38.492Z,2.99
2023-04-03T00:23:38.492Z,3.03
2023-04-03T00:24:38.443Z,2.90
2023-04-03T00:25:38.428Z,2.97
2023-04-03T00:26:38.407Z,3.03
2023-04-03T00:27:38.384Z,2.89
2023-04-03T00:28:38.368Z,2.93
2023-04-03T00:29:38.349Z,2.89
2023-04-03T00:30:38.908Z,2.95
2023-04-03T00:31:38.338Z,2.78
2023-04-03T00:32:38.353Z,2.79
2023-04-03T00:33:38.266Z,2.78
2023-04-03T00:34:38.244Z,2.79
2023-04-03T00:35:38.286Z,2.81
2023-04-03T00:36:38.300Z,2.89
2023-04-03T00:37:38.208Z,2.77
2023-04-03T00:38:38.160Z,2.84
2023-04-03T00:39:38.158Z,2.85
2023-04-03T00:40:38.520Z,2.79
2023-04-03T00:41:38.103Z,2.81
2023-04-03T00:42:38.151Z,2.69
2023-04-03T00:43:38.061Z,2.63
2023-04-03T00:44:38.037Z,2.66
2023-04-03T00:45:38.023Z,2.72
2023-04-03T00:46:38.053Z,2.64
2023-04-03T00:47:38.001Z,2.61
2023-04-03T00:48:37.966Z,2.54
2023-04-03T00:49:37.938Z,2.61
2023-04-03T00:50:38.293Z,2.54
2023-04-03T00:51:37.905Z,2.57
2023-04-03T00:52:37.911Z,2.60
2023-04-03T00:53:37.857Z,2.61
2023-04-03T00:54:37.841Z,2.54
2023-04-03T00:55:37.816Z,2.57
2023-04-03T00:56:37.794Z,2.59
2023-04-03T00:57:37.774Z,2.49
2023-04-03T00:58:37.760Z,2.60
2023-04-03T00:59:37.733Z,2.57
2023-04-03T01:00:37.949Z,2.41
2023-04-03T01:01:37.775Z,2.43
2023-04-03T01:02:37.697Z,2.52
2023-04-03T01:03:37.668Z,2.49
2023-04-03T01:04:37.937Z,2.38
2023-04-03T01:05:37.613Z,2.38
2023-04-03T01:06:37.594Z,2.39
2023-04-03T01:07:37.573Z,2.42
2023-04-03T01:08:37.579Z,2.36
2023-04-03T01:09:37.531Z,2.39
2023-04-03T01:10:37.745Z,2.39
2023-04-03T01:11:37.520Z,2.38
2023-04-03T01:12:37.478Z,2.43
2023-04-03T01:13:37.464Z,2.45
2023-04-03T01:14:37.464Z,2.39
2023-04-03T01:15:37.410Z,2.36
2023-04-03T01:16:37.431Z,2.39
2023-04-03T01:17:37.391Z,2.36
2023-04-03T01:18:37.349Z,2.34
2023-04-03T01:19:37.341Z,2.24
2023-04-03T01:20:37.870Z,2.24
2023-04-03T01:21:37.295Z,2.30
2023-04-03T01:22:37.284Z,2.25
2023-04-03T01:23:37.246Z,2.21
2023-04-03T01:24:37.238Z,2.16
2023-04-03T01:25:37.209Z,2.21
2023-04-03T01:26:37.213Z,2.14
2023-04-03T01:27:37.164Z,2.12
2023-04-03T01:28:37.149Z,2.20
2023-04-03T01:29:37.141Z,2.14
2023-04-03T01:30:37.351Z,2.12
2023-04-03T01:31:37.132Z,2.12
2023-04-03T01:32:37.106Z,2.07
2023-04-03T01:33:37.048Z,2.12
2023-04-03T01:34:37.067Z,2.07
2023-04-03T01:35:37.022Z,2.10
2023-04-03T01:36:36.981Z,2.09
2023-04-03T01:37:36.965Z,2.12
2023-04-03T01:38:36.938Z,2.03
2023-04-03T01:39:36.950Z,1.99
2023-04-03T01:40:37.127Z,2.02
2023-04-03T01:41:36.877Z,2.06
2023-04-03T01:42:36.871Z,2.02
2023-04-03T01:43:36.837Z,2.05
2023-04-03T01:44:36.870Z,1.99
2023-04-03T01:45:36.862Z,1.91
2023-04-03T01:46:36.775Z,1.99
2023-04-03T01:47:36.802Z,1.93
2023-04-03T01:48:36.733Z,1.95
2023-04-03T01:49:36.712Z,1.90
2023-04-03T01:50:36.908Z,1.99
2023-04-03T01:51:36.688Z,1.90
2023-04-03T01:52:36.680Z,1.86
2023-04-03T01:53:36.694Z,1.88
2023-04-03T01:54:36.663Z,1.84
2023-04-03T01:55:36.667Z,1.81
2023-04-03T01:56:36.627Z,1.77
2023-04-03T01:57:36.654Z,1.69
2023-04-03T01:58:36.529Z,1.77
2023-04-03T01:59:36.507Z,1.76
2023-04-03T02:00:36.634Z,1.72
2023-04-03T02:01:36.556Z,1.76
2023-04-03T02:02:36.483Z,1.68
2023-04-03T02:03:36.469Z,1.66
2023-04-03T02:04:36.408Z,1.68
2023-04-03T02:05:36.379Z,1.65
2023-04-03T02:06:36.416Z,1.66
2023-04-03T02:07:36.349Z,1.65
2023-04-03T02:08:36.319Z,1.65
2023-04-03T02:09:36.306Z,1.63
2023-04-03T02:10:36.422Z,1.68
2023-04-03T02:11:36.254Z,1.66
2023-04-03T02:12:36.262Z,1.62
2023-04-03T02:13:36.250Z,1.63
2023-04-03T02:14:36.254Z,1.65
2023-04-03T02:15:36.176Z,1.65
2023-04-03T02:16:36.178Z,1.63
2023-04-03T02:17:36.171Z,1.72
2023-04-03T02:18:36.133Z,1.68
2023-04-03T02:19:36.089Z,1.63
2023-04-03T02:20:36.330Z,1.62
2023-04-03T02:21:36.045Z,1.66
2023-04-03T02:22:36.026Z,1.63
2023-04-03T02:23:36.009Z,1.63
2023-04-03T02:24:35.986Z,1.69
2023-04-03T02:25:38.504Z,1.60
2023-04-03T02:26:35.940Z,1.63
2023-04-03T02:27:35.917Z,1.60
2023-04-03T02:28:35.897Z,1.59
2023-04-03T02:29:35.877Z,1.51
2023-04-03T02:30:36.167Z,1.58
2023-04-03T02:31:35.886Z,1.55
2023-04-03T02:32:35.875Z,1.58
2023-04-03T02:33:35.798Z,1.58
2023-04-03T02:34:35.789Z,1.54
2023-04-03T02:35:35.765Z,1.60
2023-04-03T02:36:35.733Z,1.59
2023-04-03T02:37:35.723Z,1.44
2023-04-03T02:38:35.691Z,1.41
2023-04-03T02:39:35.683Z,1.45
2023-04-03T02:40:36.081Z,1.41
2023-04-03T02:41:35.640Z,1.42
2023-04-03T02:42:35.675Z,1.44
2023-04-03T02:43:35.604Z,1.44
2023-04-03T02:44:35.569Z,1.42
2023-04-03T02:45:35.551Z,1.47
2023-04-03T02:46:35.557Z,1.44
2023-04-03T02:47:35.545Z,1.42
2023-04-03T02:48:35.536Z,1.36
2023-04-03T02:49:35.462Z,1.40
2023-04-03T02:50:35.805Z,1.42
2023-04-03T02:51:35.431Z,1.32
2023-04-03T02:52:35.403Z,1.37
2023-04-03T02:53:35.377Z,1.36
2023-04-03T02:54:35.374Z,1.37
2023-04-03T02:55:35.345Z,1.33
2023-04-03T02:56:35.348Z,1.36
2023-04-03T02:57:35.324Z,1.32
2023-04-03T02:58:35.281Z,1.36
2023-04-03T02:59:35.261Z,1.29
2023-04-03T03:00:35.764Z,1.24
2023-04-03T03:01:35.256Z,1.30
2023-04-03T03:02:35.294Z,1.20
2023-04-03T03:03:35.168Z,1.27
2023-04-03T03:04:35.164Z,1.27
2023-04-03T03:05:35.126Z,1.20
2023-04-03T03:06:35.110Z,1.29
2023-04-03T03:07:35.089Z,1.24
2023-04-03T03:08:35.066Z,1.24
2023-04-03T03:09:35.081Z,1.27
2023-04-03T03:10:35.251Z,1.24
2023-04-03T03:11:35.015Z,1.24
2023-04-03T03:12:34.987Z,1.15
2023-04-03T03:13:34.971Z,1.22
2023-04-03T03:14:34.941Z,1.22
2023-04-03T03:15:34.920Z,1.18
2023-04-03T03:16:34.959Z,1.15
2023-04-03T03:17:34.887Z,1.20
2023-04-03T03:18:34.875Z,1.14
2023-04-03T03:19:34.832Z,1.18
2023-04-03T03:20:34.994Z,1.18
2023-04-03T03:21:34.797Z,1.20
2023-04-03T03:22:34.832Z,1.15
2023-04-03T03:23:34.748Z,1.14
2023-04-03T03:24:34.730Z,1.12
2023-04-03T03:25:35.086Z,1.14
2023-04-03T03:26:34.688Z,1.11
2023-04-03T03:27:34.673Z,1.05
2023-04-03T03:28:34.682Z,1.05
2023-04-03T03:29:34.633Z,1.08
2023-04-03T03:30:34.608Z,1.09
2023-04-03T03:31:34.664Z,1.00
2023-04-03T03:32:34.605Z,1.12
2023-04-03T03:33:34.540Z,1.00
2023-04-03T03:34:34.525Z,1.05
2023-04-03T03:35:34.574Z,0.96
2023-04-03T03:36:34.478Z,0.96
2023-04-03T03:37:34.451Z,0.97
2023-04-03T03:38:34.464Z,0.94
2023-04-03T03:39:34.441Z,0.94
2023-04-03T03:40:34.397Z,0.93
2023-04-03T03:41:34.377Z,0.90
2023-04-03T03:42:34.349Z,0.96
2023-04-03T03:43:34.336Z,0.91
2023-04-03T03:44:34.326Z,0.90
2023-04-03T03:45:34.352Z,0.91
2023-04-03T03:46:34.289Z,0.84
2023-04-03T03:47:34.300Z,0.96
2023-04-03T03:48:34.252Z,0.91
2023-04-03T03:49:34.229Z,0.87
2023-04-03T03:50:34.183Z,0.88
2023-04-03T03:51:34.155Z,0.88
2023-04-03T03:52:34.136Z,0.87
2023-04-03T03:53:34.123Z,0.80
2023-04-03T03:54:34.132Z,0.84
2023-04-03T03:55:34.375Z,0.90
2023-04-03T03:56:34.056Z,0.80
2023-04-03T03:57:34.058Z,0.80
2023-04-03T03:58:34.022Z,0.79
2023-04-03T03:59:34.002Z,0.83
2023-04-03T04:00:33.973Z,0.80
2023-04-03T04:01:33.999Z,0.73
2023-04-03T04:02:34.095Z,0.72
2023-04-03T04:03:34.052Z,0.73
2023-04-03T04:04:33.885Z,0.72
2023-04-03T04:05:33.932Z,0.75
2023-04-03T04:06:33.856Z,0.79
2023-04-03T04:07:33.837Z,0.75
2023-04-03T04:08:33.807Z,0.72
2023-04-03T04:09:33.786Z,0.66
2023-04-03T04:10:33.773Z,0.66
2023-04-03T04:11:33.791Z,0.73
2023-04-03T04:12:33.744Z,0.73
2023-04-03T04:13:33.702Z,0.75
2023-04-03T04:14:33.676Z,0.76
2023-04-03T04:15:33.663Z,0.78
2023-04-03T04:16:33.673Z,0.76
2023-04-03T04:17:33.679Z,0.78
2023-04-03T04:18:33.591Z,0.70
2023-04-03T04:19:33.567Z,0.72
2023-04-03T04:20:33.548Z,0.69
2023-04-03T04:21:33.524Z,0.80
2023-04-03T04:22:33.522Z,0.65
2023-04-03T04:23:33.489Z,0.62
2023-04-03T04:24:33.463Z,0.75
2023-04-03T04:25:33.440Z,0.70
2023-04-03T04:26:33.427Z,0.61
2023-04-03T04:27:33.425Z,0.61
2023-04-03T04:28:33.405Z,0.78
2023-04-03T04:29:33.356Z,0.65
2023-04-03T04:30:33.339Z,0.66
2023-04-03T04:31:33.360Z,0.62
2023-04-03T04:32:33.345Z,0.69
2023-04-03T04:33:33.328Z,0.65
2023-04-03T04:34:33.265Z,0.60
2023-04-03T04:35:33.266Z,0.62
2023-04-03T04:36:33.325Z,0.73
2023-04-03T04:37:33.205Z,0.60
2023-04-03T04:38:33.166Z,0.57
2023-04-03T04:39:33.186Z,0.57
2023-04-03T04:40:33.120Z,0.60
2023-04-03T04:41:33.103Z,0.60
2023-04-03T04:42:33.085Z,0.50
2023-04-03T04:43:33.090Z,0.61
2023-04-03T04:44:33.039Z,0.51
2023-04-03T04:45:33.020Z,0.60
2023-04-03T04:46:33.042Z,0.53
2023-04-03T04:47:33.040Z,0.51
2023-04-03T04:48:32.996Z,0.46
2023-04-03T04:49:32.934Z,0.55
2023-04-03T04:50:32.933Z,0.58
2023-04-03T04:51:41.097Z,0.51
2023-04-03T04:52:32.864Z,0.46
2023-04-03T04:53:32.854Z,0.50
2023-04-03T04:54:32.840Z,0.53
2023-04-03T04:55:32.810Z,0.42
2023-04-03T04:56:32.778Z,0.41
2023-04-03T04:57:32.896Z,0.44
2023-04-03T04:58:32.735Z,0.50
2023-04-03T04:59:32.760Z,0.44
2023-04-03T05:00:32.734Z,0.42
2023-04-03T05:01:32.695Z,0.44
2023-04-03T05:02:32.684Z,0.47
2023-04-03T05:03:32.644Z,0.49
2023-04-03T05:04:32.640Z,0.49
2023-04-03T05:05:32.625Z,0.47
2023-04-03T05:06:32.597Z,0.39
2023-04-03T05:07:32.549Z,0.44
2023-04-03T05:08:32.522Z,0.44
2023-04-03T05:09:32.511Z,0.41
2023-04-03T05:10:32.481Z,0.42
2023-04-03T05:11:32.472Z,0.49
2023-04-03T05:12:32.442Z,0.36
2023-04-03T05:13:32.430Z,0.36
2023-04-03T05:14:32.406Z,0.44
2023-04-03T05:15:32.378Z,0.33
2023-04-03T05:16:32.442Z,0.35
2023-04-03T05:17:32.380Z,0.36
2023-04-03T05:18:32.319Z,0.39
2023-04-03T05:19:32.301Z,0.36
2023-04-03T05:20:32.269Z,0.35
2023-04-03T05:21:32.249Z,0.33
2023-04-03T05:22:32.258Z,0.39
2023-04-03T05:23:32.224Z,0.39
2023-04-03T05:24:32.190Z,0.32
2023-04-03T05:25:32.167Z,0.42
2023-04-03T05:26:32.141Z,0.38
2023-04-03T05:27:32.157Z,0.39
2023-04-03T05:28:32.153Z,0.36
2023-04-03T05:29:32.078Z,0.36
2023-04-03T05:30:32.061Z,0.41
2023-04-03T05:31:32.094Z,0.42
2023-04-03T05:32:32.018Z,0.49
2023-04-03T05:33:32.000Z,0.38
2023-04-03T05:34:32.007Z,0.44
2023-04-03T05:35:31.962Z,0.46
2023-04-03T05:36:31.926Z,0.46
2023-04-03T05:37:31.912Z,0.50
2023-04-03T05:38:31.889Z,0.44
2023-04-03T05:39:31.913Z,0.50
2023-04-03T05:40:31.844Z,0.49
2023-04-03T05:41:31.821Z,0.38
2023-04-03T05:42:31.797Z,0.57
2023-04-03T05:43:31.775Z,0.58
2023-04-03T05:44:31.755Z,0.62
2023-04-03T05:45:31.813Z,0.60
2023-04-03T05:46:31.723Z,0.51
2023-04-03T05:47:31.753Z,0.57
2023-04-03T05:48:31.666Z,0.72
2023-04-03T05:49:31.648Z,0.57
2023-04-03T05:50:31.625Z,0.55
2023-04-03T05:51:31.616Z,0.65
2023-04-03T05:52:31.596Z,0.62
2023-04-03T05:53:31.562Z,0.61
2023-04-03T05:54:31.559Z,0.69
2023-04-03T05:55:31.518Z,0.80
2023-04-03T05:56:31.505Z,0.72
2023-04-03T05:57:31.590Z,0.69
2023-04-03T05:58:31.455Z,0.66
2023-04-03T05:59:31.462Z,0.70
2023-04-03T06:00:31.413Z,0.62
2023-04-03T06:01:31.399Z,0.78
2023-04-03T06:02:31.415Z,0.66
2023-04-03T06:03:31.427Z,0.73
2023-04-03T06:04:31.429Z,0.75
2023-04-03T06:05:31.328Z,0.83
2023-04-03T06:06:31.291Z,0.84
2023-04-03T06:07:31.277Z,0.83
2023-04-03T06:08:31.241Z,0.87
2023-04-03T06:09:31.265Z,0.91
2023-04-03T06:10:31.208Z,0.91
2023-04-03T06:11:31.192Z,0.96
2023-04-03T06:12:31.161Z,1.08
2023-04-03T06:13:31.151Z,1.06
2023-04-03T06:14:31.186Z,1.04
2023-04-03T06:15:31.097Z,1.09
2023-04-03T06:16:31.106Z,1.08
2023-04-03T06:17:31.091Z,1.12
2023-04-03T06:18:31.086Z,1.04
2023-04-03T06:19:31.018Z,1.15
2023-04-03T06:20:31.037Z,1.11
2023-04-03T06:21:30.970Z,1.22
2023-04-03T06:22:30.951Z,1.23
2023-04-03T06:23:30.936Z,1.30
2023-04-03T06:24:30.907Z,1.23
2023-04-03T06:25:30.888Z,1.37
2023-04-03T06:26:30.865Z,1.37
2023-04-03T06:27:30.853Z,1.41
2023-04-03T06:28:30.827Z,1.41
2023-04-03T06:29:30.830Z,1.37
2023-04-03T06:30:30.812Z,1.37
2023-04-03T06:31:30.906Z,1.41
2023-04-03T06:32:30.756Z,1.41
2023-04-03T06:33:30.717Z,1.45
2023-04-03T06:34:30.725Z,1.42
2023-04-03T06:35:30.684Z,1.50
2023-04-03T06:36:30.654Z,1.52
2023-04-03T06:37:30.642Z,1.51
2023-04-03T06:38:30.621Z,1.63
2023-04-03T06:39:30.597Z,1.54
2023-04-03T06:40:30.580Z,1.65
2023-04-03T06:41:30.587Z,1.63
2023-04-03T06:42:30.529Z,1.63
2023-04-03T06:43:31.071Z,1.69
2023-04-03T06:44:30.484Z,1.65
2023-04-03T06:45:30.489Z,1.62
2023-04-03T06:46:30.580Z,1.62
2023-04-03T06:47:30.434Z,1.73
2023-04-03T06:48:30.399Z,1.66
2023-04-03T06:49:30.380Z,1.70
2023-04-03T06:50:30.362Z,1.76
2023-04-03T06:51:30.346Z,1.87
2023-04-03T06:52:30.321Z,1.86
2023-04-03T06:53:30.298Z,1.88
2023-04-03T06:54:30.282Z,1.88
2023-04-03T06:55:30.262Z,1.95
2023-04-03T06:56:30.268Z,1.90
2023-04-03T06:57:30.267Z,1.91
2023-04-03T06:58:30.195Z,1.98
2023-04-03T06:59:30.173Z,1.99
2023-04-03T07:00:30.153Z,1.95
2023-04-03T07:01:30.144Z,2.05
2023-04-03T07:02:30.166Z,2.03
2023-04-03T07:03:30.090Z,1.99
2023-04-03T07:04:30.097Z,1.93
2023-04-03T07:05:30.078Z,2.03
2023-04-03T07:06:30.034Z,2.02
2023-04-03T07:07:30.011Z,2.03
2023-04-03T07:08:30.048Z,2.14
2023-04-03T07:09:29.973Z,2.16
2023-04-03T07:10:29.947Z,2.14
2023-04-03T07:11:29.977Z,2.24
2023-04-03T07:12:29.903Z,2.31
2023-04-03T07:13:29.886Z,2.35
2023-04-03T07:14:29.875Z,2.39
2023-04-03T07:15:29.843Z,2.38
2023-04-03T07:16:29.874Z,2.38
2023-04-03T07:17:29.856Z,2.39
2023-04-03T07:18:29.786Z,2.48
2023-04-03T07:19:30.029Z,2.53
2023-04-03T07:20:29.749Z,2.42
2023-04-03T07:21:29.722Z,2.48
2023-04-03T07:22:29.699Z,2.59
2023-04-03T07:23:29.683Z,2.59
2023-04-03T07:24:29.665Z,2.59
2023-04-03T07:25:29.671Z,2.63
2023-04-03T07:26:29.648Z,2.64
2023-04-03T07:27:29.606Z,2.75
2023-04-03T07:28:29.574Z,2.77
2023-04-03T07:29:29.558Z,2.78
2023-04-03T07:30:29.590Z,2.78
2023-04-03T07:31:29.543Z,2.82
2023-04-03T07:32:29.517Z,2.78
2023-04-03T07:33:29.477Z,2.72
2023-04-03T07:34:29.455Z,2.85
2023-04-03T07:35:29.436Z,2.85
2023-04-03T07:36:29.416Z,2.90
2023-04-03T07:37:29.396Z,2.82
2023-04-03T07:38:29.374Z,2.84
2023-04-03T07:39:29.354Z,2.95
2023-04-03T07:40:29.333Z,2.89
2023-04-03T07:41:29.344Z,2.81
2023-04-03T07:42:29.295Z,2.79
2023-04-03T07:43:29.321Z,2.78
2023-04-03T07:44:29.263Z,2.81
2023-04-03T07:45:29.272Z,3.02
2023-04-03T07:46:29.264Z,3.06
2023-04-03T07:47:29.208Z,3.21
2023-04-03T07:48:29.197Z,3.24
2023-04-03T07:49:29.162Z,3.28
2023-04-03T07:50:29.135Z,3.40
2023-04-03T07:51:29.174Z,3.40
2023-04-03T07:52:29.163Z,3.35
2023-04-03T07:53:29.115Z,3.45
2023-04-03T07:54:29.060Z,3.39
2023-04-03T07:55:29.042Z,3.50
2023-04-03T07:56:29.021Z,3.51
2023-04-03T07:57:29.025Z,3.47
2023-04-03T07:58:29.004Z,3.52
2023-04-03T07:59:28.980Z,3.54
2023-04-03T08:00:28.944Z,3.52
2023-04-03T08:01:28.927Z,3.65
2023-04-03T08:02:28.907Z,3.78
2023-04-03T08:03:29.040Z,3.80
2023-04-03T08:04:29.025Z,3.96
2023-04-03T08:05:28.844Z,4.00
2023-04-03T08:06:42.018Z,4.06
2023-04-03T08:07:28.812Z,4.23
2023-04-03T08:08:28.820Z,4.24
2023-04-03T08:09:28.767Z,4.42
2023-04-03T08:10:28.755Z,4.48
2023-04-03T08:11:28.730Z,4.50
2023-04-03T08:12:28.713Z,4.50
2023-04-03T08:13:28.697Z,4.63
2023-04-03T08:14:28.739Z,4.60
2023-04-03T08:15:28.673Z,4.67
2023-04-03T08:16:28.662Z,4.58
2023-04-03T08:17:28.656Z,4.63
2023-04-03T08:18:28.602Z,4.50
2023-04-03T08:19:28.587Z,4.66
2023-04-03T08:20:28.617Z,4.52
2023-04-03T08:21:28.549Z,4.69
2023-04-03T08:22:28.565Z,4.66
2023-04-03T08:23:28.525Z,4.72
2023-04-03T08:24:28.495Z,4.60
2023-04-03T08:25:28.476Z,4.50
2023-04-03T08:26:28.490Z,4.50
2023-04-03T08:27:28.472Z,4.42
2023-04-03T08:28:28.429Z,4.50
2023-04-03T08:29:28.456Z,4.58
2023-04-03T08:30:28.394Z,4.73
2023-04-03T08:31:28.445Z,4.70
2023-04-03T08:32:28.380Z,4.84
2023-04-03T08:33:28.345Z,4.97
2023-04-03T08:34:28.342Z,5.00
2023-04-03T08:35:28.341Z,5.03
2023-04-03T08:36:28.315Z,5.02
2023-04-03T08:37:28.277Z,4.94
2023-04-03T08:38:28.261Z,5.04
2023-04-03T08:39:28.289Z,5.06
2023-04-03T08:40:28.226Z,5.04
2023-04-03T08:41:28.209Z,5.02
2023-04-03T08:42:28.214Z,5.13
2023-04-03T08:43:28.186Z,5.12
2023-04-03T08:44:28.164Z,5.06
2023-04-03T08:45:28.197Z,5.12
2023-04-03T08:46:28.203Z,5.07
2023-04-03T08:47:28.255Z,5.04
2023-04-03T08:48:28.099Z,5.13
2023-04-03T08:49:28.119Z,5.13
2023-04-03T08:50:29.340Z,5.09
2023-04-03T08:51:28.092Z,5.10
2023-04-03T08:52:28.028Z,5.13
2023-04-03T08:53:28.004Z,5.24
2023-04-03T08:54:27.991Z,5.36
2023-04-03T08:55:28.029Z,5.40
2023-04-03T08:56:27.956Z,5.33
2023-04-03T08:57:28.015Z,5.28
2023-04-03T08:58:27.921Z,5.33
2023-04-03T08:59:27.906Z,5.39
2023-04-03T09:00:27.892Z,5.40
2023-04-03T09:01:27.892Z,5.43
2023-04-03T09:02:27.901Z,5.38
2023-04-03T09:03:28.021Z,5.35
2023-04-03T09:04:27.820Z,5.48
2023-04-03T09:05:27.805Z,5.45
2023-04-03T09:06:27.791Z,5.51
2023-04-03T09:07:27.771Z,5.51
2023-04-03T09:08:27.759Z,5.60
2023-04-03T09:09:27.775Z,5.67
2023-04-03T09:10:27.719Z,5.68
2023-04-03T09:11:27.756Z,5.81
2023-04-03T09:12:27.707Z,5.90
2023-04-03T09:13:27.710Z,5.99
2023-04-03T09:14:27.678Z,6.17
2023-04-03T09:15:37.847Z,6.37
2023-04-03T09:16:27.759Z,6.44
2023-04-03T09:17:27.640Z,6.38
2023-04-03T09:18:27.594Z,6.41
2023-04-03T09:19:27.728Z,6.31
2023-04-03T09:20:27.593Z,6.43
2023-04-03T09:21:27.546Z,6.51
2023-04-03T09:22:27.552Z,6.52
2023-04-03T09:23:27.554Z,6.66
2023-04-03T09:24:27.504Z,6.73
2023-04-03T09:25:27.503Z,6.74
2023-04-03T09:26:27.475Z,6.84
2023-04-03T09:27:27.500Z,6.73
2023-04-03T09:28:27.871Z,6.69
2023-04-03T09:29:27.454Z,6.70
2023-04-03T09:30:27.420Z,6.84
2023-04-03T09:31:27.420Z,7.06
2023-04-03T09:32:27.393Z,7.23
2023-04-03T09:33:27.371Z,7.17
2023-04-03T09:34:27.446Z,7.25
2023-04-03T09:35:39.998Z,7.28
2023-04-03T09:36:27.347Z,7.40
2023-04-03T09:37:27.326Z,7.50
2023-04-03T09:38:27.303Z,7.43
2023-04-03T09:39:27.320Z,7.45
2023-04-03T09:40:27.274Z,7.50
2023-04-03T09:41:27.287Z,7.49
2023-04-03T09:42:27.250Z,7.46
2023-04-03T09:43:27.260Z,7.39
2023-04-03T09:44:27.279Z,7.39
2023-04-03T09:45:27.214Z,7.39
2023-04-03T09:46:27.214Z,7.40
2023-04-03T09:47:27.239Z,7.39
2023-04-03T09:48:27.202Z,7.35
2023-04-03T09:49:27.162Z,7.31
2023-04-03T09:50:27.186Z,7.48
2023-04-03T09:51:27.311Z,7.53
2023-04-03T09:52:27.116Z,7.45
2023-04-03T09:53:27.105Z,7.49
2023-04-03T09:54:27.102Z,7.45
2023-04-03T09:55:27.077Z,7.46
2023-04-03T09:56:27.117Z,7.25
2023-04-03T09:57:27.088Z,7.21
2023-04-03T09:58:29.488Z,7.12
2023-04-03T09:59:27.018Z,7.12
2023-04-03T10:00:27.001Z,7.09
2023-04-03T10:01:27.069Z,7.03
2023-04-03T10:02:27.013Z,6.92
2023-04-03T10:03:26.971Z,7.06
2023-04-03T10:04:26.986Z,7.10
2023-04-03T10:05:26.927Z,6.97
2023-04-03T10:06:26.906Z,6.94
2023-04-03T10:07:26.997Z,6.94
2023-04-03T10:08:26.878Z,6.99
2023-04-03T10:09:26.869Z,7.09
2023-04-03T10:10:26.932Z,7.09
2023-04-03T10:11:26.842Z,7.20
2023-04-03T10:12:26.818Z,7.10
2023-04-03T10:13:26.797Z,7.17
2023-04-03T10:14:26.869Z,7.23
2023-04-03T10:15:26.773Z,7.28
2023-04-03T10:16:26.803Z,7.35
2023-04-03T10:17:26.812Z,7.43
2023-04-03T10:18:26.757Z,7.37
2023-04-03T10:19:26.703Z,7.48
2023-04-03T10:20:26.726Z,7.57
2023-04-03T10:21:27.769Z,7.57
2023-04-03T10:22:26.710Z,7.64
2023-04-03T10:23:26.775Z,7.75
2023-04-03T10:24:26.627Z,7.69
2023-04-03T10:25:26.656Z,7.61
2023-04-03T10:26:26.601Z,7.75
2023-04-03T10:27:26.581Z,7.80
2023-04-03T10:28:26.585Z,7.80
2023-04-03T10:29:26.561Z,7.85
2023-04-03T10:30:26.533Z,7.92
2023-04-03T10:31:26.613Z,7.89
2023-04-03T10:32:26.540Z,7.92
2023-04-03T10:33:26.492Z,8.00
2023-04-03T10:34:26.474Z,8.01
2023-04-03T10:35:26.458Z,7.90
2023-04-03T10:36:26.475Z,7.90
2023-04-03T10:37:26.430Z,7.95
2023-04-03T10:38:26.424Z,8.26
2023-04-03T10:39:26.508Z,8.30
2023-04-03T10:40:26.473Z,8.26
2023-04-03T10:41:26.371Z,8.25
2023-04-03T10:42:26.449Z,8.18
2023-04-03T10:43:26.343Z,7.85
2023-04-03T10:44:26.336Z,7.68
2023-04-03T10:45:26.311Z,7.39
2023-04-03T10:46:26.363Z,7.13
2023-04-03T10:47:26.326Z,7.07
2023-04-03T10:48:26.265Z,7.09
2023-04-03T10:49:26.251Z,7.02
2023-04-03T10:50:26.233Z,7.02
2023-04-03T10:51:26.232Z,7.13
2023-04-03T10:52:26.263Z,7.13
2023-04-03T10:53:26.190Z,7.21
2023-04-03T10:54:26.184Z,7.34
2023-04-03T10:55:26.264Z,7.49
2023-04-03T10:56:26.145Z,7.68
2023-04-03T10:57:26.152Z,7.86
2023-04-03T10:58:26.155Z,8.15
2023-04-03T10:59:26.103Z,8.23
2023-04-03T11:00:26.132Z,8.30
2023-04-03T11:01:26.083Z,8.41
2023-04-03T11:02:27.419Z,8.63
2023-04-03T11:03:26.112Z,8.98
2023-04-03T11:04:26.029Z,9.38
2023-04-03T11:05:26.012Z,9.72
2023-04-03T11:06:26.010Z,9.91
2023-04-03T11:07:25.983Z,10.04
2023-04-03T11:08:26.054Z,10.34
2023-04-03T11:09:25.961Z,10.32
2023-04-03T11:10:25.947Z,10.22
2023-04-03T11:11:26.027Z,10.01
2023-04-03T11:12:25.944Z,9.99
2023-04-03T11:13:25.978Z,9.94
2023-04-03T11:14:25.892Z,10.01
2023-04-03T11:15:25.888Z,9.86
2023-04-03T11:16:25.899Z,9.94
2023-04-03T11:17:25.859Z,10.15
2023-04-03T11:18:25.850Z,10.25
2023-04-03T11:19:25.821Z,10.27
2023-04-03T11:20:25.810Z,10.26
2023-04-03T11:21:25.790Z,10.20
2023-04-03T11:22:25.812Z,10.32
2023-04-03T11:23:28.253Z,10.34
2023-04-03T11:24:25.770Z,10.33
2023-04-03T11:25:25.779Z,9.86
2023-04-03T11:26:25.746Z,9.71
2023-04-03T11:27:25.811Z,9.46
2023-04-03T11:28:25.702Z,8.95
2023-04-03T11:29:34.985Z,8.59
2023-04-03T11:30:25.672Z,8.44
2023-04-03T11:31:25.711Z,8.15
2023-04-03T11:32:25.660Z,7.86
2023-04-03T11:33:25.633Z,7.55
2023-04-03T11:34:25.620Z,7.35
2023-04-03T11:35:25.609Z,7.42
2023-04-03T11:36:29.300Z,7.28
2023-04-03T11:37:25.581Z,7.31
2023-04-03T11:38:25.558Z,7.34
2023-04-03T11:39:25.561Z,7.27
2023-04-03T11:40:25.536Z,7.31
2023-04-03T11:41:25.543Z,7.42
2023-04-03T11:42:25.572Z,7.40
2023-04-03T11:43:25.590Z,7.42
2023-04-03T11:44:25.467Z,7.27
2023-04-03T11:45:25.456Z,7.25
2023-04-03T11:46:25.525Z,7.24
2023-04-03T11:47:25.448Z,7.15
2023-04-03T11:48:25.523Z,7.05
2023-04-03T11:49:25.391Z,7.06
2023-04-03T11:50:25.373Z,6.97
2023-04-03T11:51:25.367Z,6.98
2023-04-03T11:52:25.370Z,6.95
2023-04-03T11:53:25.328Z,6.98
2023-04-03T11:54:26.489Z,6.98
2023-04-03T11:55:25.305Z,7.07
2023-04-03T11:56:25.287Z,7.03
2023-04-03T11:57:25.333Z,7.02
2023-04-03T11:58:25.241Z,7.30
2023-04-03T11:59:25.333Z,7.60
2023-04-03T12:00:25.206Z,8.07
2023-04-03T12:01:26.194Z,8.18
2023-04-03T12:02:25.252Z,8.20
2023-04-03T12:03:25.310Z,8.25
2023-04-03T12:04:25.213Z,8.23
2023-04-03T12:05:25.135Z,8.53
2023-04-03T12:06:25.113Z,9.11
2023-04-03T12:07:25.100Z,9.64
2023-04-03T12:08:25.088Z,9.83
2023-04-03T12:09:25.114Z,9.93
2023-04-03T12:10:32.383Z,9.94
2023-04-03T12:11:25.054Z,10.04
2023-04-03T12:12:25.043Z,9.97
2023-04-03T12:13:25.021Z,9.81
2023-04-03T12:14:25.006Z,9.68
2023-04-03T12:15:25.137Z,9.50
2023-04-03T12:16:25.000Z,9.32
2023-04-03T12:17:24.960Z,9.40
2023-04-03T12:18:24.938Z,9.28
2023-04-03T12:19:32.256Z,9.23
2023-04-03T12:20:24.943Z,9.28
2023-04-03T12:21:24.906Z,9.26
2023-04-03T12:22:24.892Z,9.23
2023-04-03T12:23:24.865Z,9.38
2023-04-03T12:24:24.903Z,9.72
2023-04-03T12:25:24.830Z,9.86
2023-04-03T12:26:26.586Z,9.89
2023-04-03T12:27:24.813Z,10.15
2023-04-03T12:28:24.796Z,10.22
2023-04-03T12:29:24.808Z,10.12
2023-04-03T12:30:24.777Z,10.07
2023-04-03T12:31:24.895Z,10.14
2023-04-03T12:32:24.759Z,10.08
2023-04-03T12:33:24.760Z,9.96
2023-04-03T12:34:24.707Z,9.79
2023-04-03T12:35:24.721Z,9.71
2023-04-03T12:36:24.704Z,9.56
2023-04-03T12:37:24.719Z,9.26
2023-04-03T12:38:24.649Z,9.21
2023-04-03T12:39:24.668Z,9.08
2023-04-03T12:40:24.623Z,9.04
2023-04-03T12:41:24.612Z,8.92
2023-04-03T12:42:24.624Z,8.91
2023-04-03T12:43:24.580Z,8.77
2023-04-03T12:44:24.578Z,8.77
2023-04-03T12:45:24.734Z,8.63
2023-04-03T12:46:24.678Z,8.48
2023-04-03T12:47:24.688Z,8.30
2023-04-03T12:48:24.511Z,8.20
2023-04-03T12:49:24.489Z,8.15
2023-04-03T12:50:24.484Z,8.07
2023-04-03T12:51:24.488Z,8.15
2023-04-03T12:52:24.443Z,8.16
2023-04-03T12:53:24.454Z,8.15
2023-04-03T12:54:24.423Z,8.10
2023-04-03T12:55:24.426Z,8.12
2023-04-03T12:56:24.402Z,8.04
2023-04-03T12:57:24.409Z,7.80
2023-04-03T12:58:24.352Z,7.63
2023-04-03T12:59:24.351Z,7.43
2023-04-03T13:00:24.323Z,7.35
2023-04-03T13:01:24.333Z,7.28
2023-04-03T13:02:24.445Z,7.21
2023-04-03T13:03:24.493Z,7.13
2023-04-03T13:04:24.318Z,7.23
2023-04-03T13:05:24.246Z,7.32
2023-04-03T13:06:24.226Z,7.28
2023-04-03T13:07:24.215Z,7.27
2023-04-03T13:08:24.206Z,7.24
2023-04-03T13:09:24.213Z,7.28
2023-04-03T13:10:24.166Z,7.31
2023-04-03T13:11:24.153Z,7.39
2023-04-03T13:12:24.134Z,7.49
2023-04-03T13:13:24.116Z,8.05
2023-04-03T13:14:24.103Z,8.61
2023-04-03T13:15:24.092Z,9.24
2023-04-03T13:16:24.104Z,9.60
2023-04-03T13:17:24.125Z,10.08